Impacts TAF Board
For situational awareness. Not to be used for flight planning purposes.
IDs:

KMTN - Baltimore/Martin Sta, MD, US

Issued at 0520 UTC 11 May 2021
Updated at 1113 UTC 11 May 2021
Potential Impact None Slight Moderate High
Time1055Z 11/12Z 11/13Z 11/14Z 11/15Z 11/16Z 11/17Z 11/18Z 11/19Z 11/20Z 11/21Z 11/22Z 11/23Z 12/00Z>>
Type OBS PRVL PRVL PRVL PRVL PRVL PRVL PRVL PRVL PRVL PRVL PRVL PRVL PRVL
VIS 10 >6 >6 >6 >6 >6 >6 >6 >6 >6 >6 >6 >6 >6
CIG -- -- -- -- -- -- -- -- -- -- -- -- -- 80
Cover SCT SCT SCT FEW FEW FEW FEW FEW SCT SCT SCT SCT SCT BKN
FltCat VFR VFR VFR VFR VFR VFR VFR VFR VFR VFR VFR VFR VFR VFR
WX -- -- -- -- -- -- -- -- -- -- -- -- -- --
WDir VRB 330 330 270 270 270 270 270 290 290 290 290 290 310
WSpd 0 4 4 4 4 4 4 4 10 10 10 10 10 8
WGst -- -- -- -- -- -- -- -- 21 21 21 21 21 --
Raw TAF
KMTN 110520Z 1106/1206 32005KT P6SM BKN250
  FM111000 33004KT P6SM SCT250
  FM111400 27004KT P6SM FEW250
  FM111900 29010G21KT P6SM SCT060
  FM120000 31008KT P6SM BKN080 AMD NOT SKED


Raw METAR
KMTN 111055Z 00000KT 10SM SCT070 10/06 A3012
KMTN 110945Z 00000KT 10SM SCT070 BKN120 10/05 A3010

METAR Board
Radar Display
Forecast Discussion
For situational awareness. Not to be used for flight planning purposes.